Ellenburg Depot, New York
Current Conditions -  °F | °C
As of 9:53 PM on Thursday 27 Nov 2014 (Local Time) from KPBG Reporting Station
Overcast Overcast  
Wind Chill: -3°   Ceiling: 4100
Heat Index: -3°   Visibility: 10mi
Dew Point: -5°   Wind: 3mph
Humidity: 85%   Direction: 290°WNW
Pressure: 30.05"   Gusts: NA
Location:  44.91°N, 73.8°W
Report Text: KPBG 280253Z AUTO 29003KT 10SM OVC041 M03/M05 A3005 RMK AO2 SLP181 T10281050 51005
Loading
Personal Weather Stations






























Interactive Weather Map New forecast layout! Learn more

10-Day Weather Forecast

Advertisements
Track Severe Weather on mobile